sensor_id;sensor_type;location;lat;lon;timestamp;P1;durP1;ratioP1;P2;durP2;ratioP2
9767;SDS011;4923;52.520;13.494;2023-10-08T00:01:58;8.10;;;4.65;;
9767;SDS011;4923;52.520;13.494;2023-10-08T00:04:46;9.70;;;3.75;;
9767;SDS011;4923;52.520;13.494;2023-10-08T00:07:36;9.10;;;2.95;;
9767;SDS011;4923;52.520;13.494;2023-10-08T00:10:27;9.15;;;3.38;;
9767;SDS011;4923;52.520;13.494;2023-10-08T00:13:14;7.70;;;2.50;;
9767;SDS011;4923;52.520;13.494;2023-10-08T00:16:03;5.63;;;2.30;;
9767;SDS011;4923;52.520;13.494;2023-10-08T00:18:54;4.93;;;1.75;;
9767;SDS011;4923;52.520;13.494;2023-10-08T00:21:45;8.02;;;2.17;;
9767;SDS011;4923;52.520;13.494;2023-10-08T00:24:34;3.35;;;1.58;;
9767;SDS011;4923;52.520;13.494;2023-10-08T00:27:21;2.75;;;2.10;;
9767;SDS011;4923;52.520;13.494;2023-10-08T00:30:08;4.40;;;1.45;;
9767;SDS011;4923;52.520;13.494;2023-10-08T00:33:04;3.05;;;1.35;;
9767;SDS011;4923;52.520;13.494;2023-10-08T00:35:51;4.95;;;1.63;;
9767;SDS011;4923;52.520;13.494;2023-10-08T00:38:38;5.72;;;1.55;;
9767;SDS011;4923;52.520;13.494;2023-10-08T00:41:29;2.55;;;1.40;;
9767;SDS011;4923;52.520;13.494;2023-10-08T00:44:19;9.88;;;2.33;;
9767;SDS011;4923;52.520;13.494;2023-10-08T00:47:08;1.73;;;1.20;;
9767;SDS011;4923;52.520;13.494;2023-10-08T00:49:58;8.15;;;1.77;;
9767;SDS011;4923;52.520;13.494;2023-10-08T00:52:54;11.43;;;1.85;;
9767;SDS011;4923;52.520;13.494;2023-10-08T00:55:45;4.57;;;2.33;;
9767;SDS011;4923;52.520;13.494;2023-10-08T00:58:39;3.58;;;1.20;;
9767;SDS011;4923;52.520;13.494;2023-10-08T01:01:31;9.68;;;1.40;;
9767;SDS011;4923;52.520;13.494;2023-10-08T01:04:18;3.47;;;1.33;;
9767;SDS011;4923;52.520;13.494;2023-10-08T01:07:10;6.60;;;1.55;;
9767;SDS011;4923;52.520;13.494;2023-10-08T01:10:01;3.88;;;1.25;;
9767;SDS011;4923;52.520;13.494;2023-10-08T01:12:55;9.27;;;1.48;;
9767;SDS011;4923;52.520;13.494;2023-10-08T01:15:50;4.68;;;1.83;;
9767;SDS011;4923;52.520;13.494;2023-10-08T01:18:37;9.32;;;1.75;;
9767;SDS011;4923;52.520;13.494;2023-10-08T01:21:28;4.28;;;1.40;;
9767;SDS011;4923;52.520;13.494;2023-10-08T01:24:21;6.82;;;1.77;;
9767;SDS011;4923;52.520;13.494;2023-10-08T01:27:09;3.63;;;2.25;;
9767;SDS011;4923;52.520;13.494;2023-10-08T01:29:57;8.18;;;1.90;;
9767;SDS011;4923;52.520;13.494;2023-10-08T01:32:54;2.65;;;1.45;;
9767;SDS011;4923;52.520;13.494;2023-10-08T01:35:41;5.15;;;1.98;;
9767;SDS011;4923;52.520;13.494;2023-10-08T01:38:29;15.40;;;1.30;;
9767;SDS011;4923;52.520;13.494;2023-10-08T01:41:17;4.40;;;2.05;;
9767;SDS011;4923;52.520;13.494;2023-10-08T01:44:04;5.97;;;1.83;;
9767;SDS011;4923;52.520;13.494;2023-10-08T01:46:53;3.80;;;1.25;;
9767;SDS011;4923;52.520;13.494;2023-10-08T01:49:42;6.15;;;1.27;;
9767;SDS011;4923;52.520;13.494;2023-10-08T01:52:31;9.05;;;1.27;;
9767;SDS011;4923;52.520;13.494;2023-10-08T01:55:19;4.47;;;1.33;;
9767;SDS011;4923;52.520;13.494;2023-10-08T01:58:09;8.75;;;2.20;;
9767;SDS011;4923;52.520;13.494;2023-10-08T02:00:56;4.65;;;1.67;;
9767;SDS011;4923;52.520;13.494;2023-10-08T02:03:45;7.15;;;1.50;;
9767;SDS011;4923;52.520;13.494;2023-10-08T02:06:32;2.60;;;1.10;;
9767;SDS011;4923;52.520;13.494;2023-10-08T02:09:19;8.77;;;2.17;;
9767;SDS011;4923;52.520;13.494;2023-10-08T02:12:11;6.00;;;1.40;;
9767;SDS011;4923;52.520;13.494;2023-10-08T02:15:00;5.13;;;1.85;;
9767;SDS011;4923;52.520;13.494;2023-10-08T02:17:48;3.30;;;1.95;;
9767;SDS011;4923;52.520;13.494;2023-10-08T02:20:35;8.05;;;2.33;;
9767;SDS011;4923;52.520;13.494;2023-10-08T02:23:22;6.50;;;1.80;;
9767;SDS011;4923;52.520;13.494;2023-10-08T02:26:09;9.38;;;1.90;;
9767;SDS011;4923;52.520;13.494;2023-10-08T02:28:56;6.80;;;1.95;;
9767;SDS011;4923;52.520;13.494;2023-10-08T02:31:46;6.82;;;2.42;;
9767;SDS011;4923;52.520;13.494;2023-10-08T02:34:33;6.72;;;1.65;;
9767;SDS011;4923;52.520;13.494;2023-10-08T02:37:21;17.27;;;4.55;;
9767;SDS011;4923;52.520;13.494;2023-10-08T02:40:08;7.15;;;2.28;;
9767;SDS011;4923;52.520;13.494;2023-10-08T02:43:02;8.20;;;2.50;;
9767;SDS011;4923;52.520;13.494;2023-10-08T02:45:53;5.80;;;1.80;;
9767;SDS011;4923;52.520;13.494;2023-10-08T02:48:42;6.88;;;2.88;;
9767;SDS011;4923;52.520;13.494;2023-10-08T02:51:29;12.93;;;2.53;;
9767;SDS011;4923;52.520;13.494;2023-10-08T02:54:17;7.88;;;2.00;;
9767;SDS011;4923;52.520;13.494;2023-10-08T02:57:04;19.85;;;2.60;;
9767;SDS011;4923;52.520;13.494;2023-10-08T02:59:56;6.50;;;1.90;;
9767;SDS011;4923;52.520;13.494;2023-10-08T03:02:42;3.85;;;1.58;;
9767;SDS011;4923;52.520;13.494;2023-10-08T03:05:31;6.03;;;2.08;;
9767;SDS011;4923;52.520;13.494;2023-10-08T03:08:21;19.27;;;2.05;;
9767;SDS011;4923;52.520;13.494;2023-10-08T03:11:09;8.82;;;2.30;;
9767;SDS011;4923;52.520;13.494;2023-10-08T03:14:02;6.30;;;1.73;;
9767;SDS011;4923;52.520;13.494;2023-10-08T03:16:49;9.90;;;2.45;;
9767;SDS011;4923;52.520;13.494;2023-10-08T03:19:38;7.05;;;2.28;;
9767;SDS011;4923;52.520;13.494;2023-10-08T03:22:31;7.45;;;2.00;;
9767;SDS011;4923;52.520;13.494;2023-10-08T03:25:18;9.73;;;1.70;;
9767;SDS011;4923;52.520;13.494;2023-10-08T03:28:06;9.45;;;2.20;;
9767;SDS011;4923;52.520;13.494;2023-10-08T03:30:54;6.90;;;2.00;;
9767;SDS011;4923;52.520;13.494;2023-10-08T03:33:48;10.82;;;2.55;;
9767;SDS011;4923;52.520;13.494;2023-10-08T03:36:37;10.82;;;2.65;;
9767;SDS011;4923;52.520;13.494;2023-10-08T03:39:31;9.88;;;1.83;;
9767;SDS011;4923;52.520;13.494;2023-10-08T03:42:36;8.27;;;2.00;;
9767;SDS011;4923;52.520;13.494;2023-10-08T03:45:26;10.85;;;2.40;;
9767;SDS011;4923;52.520;13.494;2023-10-08T03:48:31;12.80;;;2.00;;
9767;SDS011;4923;52.520;13.494;2023-10-08T03:51:24;3.42;;;1.27;;
9767;SDS011;4923;52.520;13.494;2023-10-08T03:54:14;14.25;;;2.22;;
9767;SDS011;4923;52.520;13.494;2023-10-08T03:57:05;6.07;;;2.78;;
9767;SDS011;4923;52.520;13.494;2023-10-08T04:00:13;8.80;;;1.98;;
9767;SDS011;4923;52.520;13.494;2023-10-08T04:03:04;5.38;;;1.77;;
9767;SDS011;4923;52.520;13.494;2023-10-08T04:05:53;17.42;;;1.98;;
9767;SDS011;4923;52.520;13.494;2023-10-08T04:09:00;12.32;;;2.60;;
9767;SDS011;4923;52.520;13.494;2023-10-08T04:12:01;9.20;;;1.95;;
9767;SDS011;4923;52.520;13.494;2023-10-08T04:14:54;3.35;;;1.55;;
9767;SDS011;4923;52.520;13.494;2023-10-08T04:17:41;5.65;;;2.30;;
9767;SDS011;4923;52.520;13.494;2023-10-08T04:20:29;4.65;;;1.70;;
9767;SDS011;4923;52.520;13.494;2023-10-08T04:23:23;11.23;;;2.80;;
9767;SDS011;4923;52.520;13.494;2023-10-08T04:26:10;5.25;;;1.92;;
9767;SDS011;4923;52.520;13.494;2023-10-08T04:28:59;9.45;;;2.13;;
9767;SDS011;4923;52.520;13.494;2023-10-08T04:31:49;7.13;;;2.20;;
9767;SDS011;4923;52.520;13.494;2023-10-08T04:34:46;5.05;;;2.40;;
9767;SDS011;4923;52.520;13.494;2023-10-08T04:37:35;3.88;;;2.38;;
9767;SDS011;4923;52.520;13.494;2023-10-08T04:40:26;12.07;;;1.98;;
9767;SDS011;4923;52.520;13.494;2023-10-08T04:43:19;5.18;;;2.17;;
9767;SDS011;4923;52.520;13.494;2023-10-08T04:46:10;5.10;;;2.50;;
9767;SDS011;4923;52.520;13.494;2023-10-08T04:49:07;8.25;;;3.50;;
9767;SDS011;4923;52.520;13.494;2023-10-08T04:52:04;5.03;;;2.22;;
9767;SDS011;4923;52.520;13.494;2023-10-08T04:54:59;11.57;;;2.95;;
9767;SDS011;4923;52.520;13.494;2023-10-08T04:57:57;7.63;;;2.17;;
9767;SDS011;4923;52.520;13.494;2023-10-08T05:00:44;14.43;;;3.75;;
9767;SDS011;4923;52.520;13.494;2023-10-08T05:03:39;15.90;;;2.53;;
9767;SDS011;4923;52.520;13.494;2023-10-08T05:06:40;9.20;;;3.05;;
9767;SDS011;4923;52.520;13.494;2023-10-08T05:09:46;18.08;;;3.60;;
9767;SDS011;4923;52.520;13.494;2023-10-08T05:12:56;9.55;;;2.55;;
9767;SDS011;4923;52.520;13.494;2023-10-08T05:16:01;9.95;;;2.30;;
9767;SDS011;4923;52.520;13.494;2023-10-08T05:19:15;9.52;;;3.25;;
9767;SDS011;4923;52.520;13.494;2023-10-08T05:22:20;7.65;;;2.70;;
9767;SDS011;4923;52.520;13.494;2023-10-08T05:25:29;7.93;;;2.97;;
9767;SDS011;4923;52.520;13.494;2023-10-08T05:28:25;15.80;;;3.20;;
9767;SDS011;4923;52.520;13.494;2023-10-08T05:31:14;16.33;;;3.25;;
9767;SDS011;4923;52.520;13.494;2023-10-08T05:34:22;9.70;;;3.45;;
9767;SDS011;4923;52.520;13.494;2023-10-08T05:37:18;10.52;;;3.13;;
9767;SDS011;4923;52.520;13.494;2023-10-08T05:40:28;12.70;;;3.13;;
9767;SDS011;4923;52.520;13.494;2023-10-08T05:43:29;7.70;;;3.42;;
9767;SDS011;4923;52.520;13.494;2023-10-08T05:46:34;9.80;;;2.65;;
9767;SDS011;4923;52.520;13.494;2023-10-08T05:49:36;17.20;;;3.40;;
9767;SDS011;4923;52.520;13.494;2023-10-08T05:52:39;15.25;;;2.85;;
9767;SDS011;4923;52.520;13.494;2023-10-08T05:55:37;14.50;;;2.97;;
9767;SDS011;4923;52.520;13.494;2023-10-08T05:58:32;5.15;;;3.00;;
9767;SDS011;4923;52.520;13.494;2023-10-08T06:01:31;9.57;;;3.65;;
9767;SDS011;4923;52.520;13.494;2023-10-08T06:04:25;11.05;;;3.65;;
9767;SDS011;4923;52.520;13.494;2023-10-08T06:07:28;15.68;;;3.33;;
9767;SDS011;4923;52.520;13.494;2023-10-08T06:10:33;12.75;;;3.10;;
9767;SDS011;4923;52.520;13.494;2023-10-08T06:13:28;10.15;;;3.88;;
9767;SDS011;4923;52.520;13.494;2023-10-08T06:16:30;5.50;;;2.55;;
9767;SDS011;4923;52.520;13.494;2023-10-08T06:19:26;10.68;;;2.47;;
9767;SDS011;4923;52.520;13.494;2023-10-08T06:22:12;10.55;;;3.17;;
9767;SDS011;4923;52.520;13.494;2023-10-08T06:24:59;4.90;;;2.30;;
9767;SDS011;4923;52.520;13.494;2023-10-08T06:28:02;12.57;;;2.30;;
9767;SDS011;4923;52.520;13.494;2023-10-08T06:30:52;14.98;;;2.35;;
9767;SDS011;4923;52.520;13.494;2023-10-08T06:33:40;6.85;;;2.20;;
9767;SDS011;4923;52.520;13.494;2023-10-08T06:36:28;3.70;;;2.35;;
9767;SDS011;4923;52.520;13.494;2023-10-08T06:39:16;5.57;;;2.22;;
9767;SDS011;4923;52.520;13.494;2023-10-08T06:42:04;5.97;;;2.55;;
9767;SDS011;4923;52.520;13.494;2023-10-08T06:44:52;5.15;;;1.40;;
9767;SDS011;4923;52.520;13.494;2023-10-08T06:47:44;4.72;;;1.50;;
9767;SDS011;4923;52.520;13.494;2023-10-08T06:50:31;6.22;;;1.40;;
9767;SDS011;4923;52.520;13.494;2023-10-08T06:53:20;4.13;;;1.80;;
9767;SDS011;4923;52.520;13.494;2023-10-08T06:56:07;3.08;;;1.13;;
9767;SDS011;4923;52.520;13.494;2023-10-08T06:58:57;2.92;;;1.30;;
9767;SDS011;4923;52.520;13.494;2023-10-08T07:01:44;3.67;;;1.35;;
9767;SDS011;4923;52.520;13.494;2023-10-08T07:04:33;11.52;;;1.60;;
9767;SDS011;4923;52.520;13.494;2023-10-08T07:07:20;3.00;;;1.40;;
9767;SDS011;4923;52.520;13.494;2023-10-08T07:10:07;6.38;;;1.55;;
9767;SDS011;4923;52.520;13.494;2023-10-08T07:12:56;13.43;;;1.20;;
9767;SDS011;4923;52.520;13.494;2023-10-08T07:15:44;0.80;;;0.80;;
9767;SDS011;4923;52.520;13.494;2023-10-08T07:18:31;2.83;;;1.20;;
9767;SDS011;4923;52.520;13.494;2023-10-08T07:21:20;3.08;;;1.10;;
9767;SDS011;4923;52.520;13.494;2023-10-08T07:24:14;7.00;;;1.00;;
9767;SDS011;4923;52.520;13.494;2023-10-08T07:27:07;0.77;;;0.75;;
9767;SDS011;4923;52.520;13.494;2023-10-08T07:29:54;2.83;;;0.90;;
9767;SDS011;4923;52.520;13.494;2023-10-08T07:32:41;2.60;;;0.70;;
9767;SDS011;4923;52.520;13.494;2023-10-08T07:35:28;0.90;;;0.55;;
9767;SDS011;4923;52.520;13.494;2023-10-08T07:38:28;7.22;;;0.90;;
9767;SDS011;4923;52.520;13.494;2023-10-08T07:41:15;3.80;;;0.80;;
9767;SDS011;4923;52.520;13.494;2023-10-08T07:44:04;1.20;;;0.60;;
9767;SDS011;4923;52.520;13.494;2023-10-08T07:46:53;4.32;;;1.00;;
9767;SDS011;4923;52.520;13.494;2023-10-08T07:49:40;1.85;;;0.50;;
9767;SDS011;4923;52.520;13.494;2023-10-08T07:52:30;1.35;;;0.77;;
9767;SDS011;4923;52.520;13.494;2023-10-08T07:55:18;0.70;;;0.60;;
9767;SDS011;4923;52.520;13.494;2023-10-08T07:58:05;1.75;;;0.50;;
9767;SDS011;4923;52.520;13.494;2023-10-08T08:00:55;1.05;;;0.70;;
9767;SDS011;4923;52.520;13.494;2023-10-08T08:03:46;1.67;;;0.70;;
9767;SDS011;4923;52.520;13.494;2023-10-08T08:06:34;2.92;;;0.77;;
9767;SDS011;4923;52.520;13.494;2023-10-08T08:09:22;3.42;;;0.68;;
9767;SDS011;4923;52.520;13.494;2023-10-08T08:12:13;1.15;;;0.80;;
9767;SDS011;4923;52.520;13.494;2023-10-08T08:15:00;1.73;;;0.75;;
9767;SDS011;4923;52.520;13.494;2023-10-08T08:17:59;0.60;;;0.60;;
9767;SDS011;4923;52.520;13.494;2023-10-08T08:20:46;0.68;;;0.68;;
9767;SDS011;4923;52.520;13.494;2023-10-08T08:23:33;0.50;;;0.50;;
9767;SDS011;4923;52.520;13.494;2023-10-08T08:26:20;2.40;;;0.50;;
9767;SDS011;4923;52.520;13.494;2023-10-08T08:29:15;0.93;;;0.43;;
9767;SDS011;4923;52.520;13.494;2023-10-08T08:32:02;2.57;;;0.77;;
9767;SDS011;4923;52.520;13.494;2023-10-08T08:34:49;0.60;;;0.60;;
9767;SDS011;4923;52.520;13.494;2023-10-08T08:37:37;0.50;;;0.50;;
9767;SDS011;4923;52.520;13.494;2023-10-08T08:40:25;1.70;;;0.43;;
9767;SDS011;4923;52.520;13.494;2023-10-08T08:43:12;0.50;;;0.50;;
9767;SDS011;4923;52.520;13.494;2023-10-08T08:46:00;1.07;;;0.57;;
9767;SDS011;4923;52.520;13.494;2023-10-08T08:48:48;0.97;;;0.80;;
9767;SDS011;4923;52.520;13.494;2023-10-08T08:51:38;0.73;;;0.33;;
9767;SDS011;4923;52.520;13.494;2023-10-08T08:54:26;0.87;;;0.50;;
9767;SDS011;4923;52.520;13.494;2023-10-08T08:57:17;0.53;;;0.53;;
9767;SDS011;4923;52.520;13.494;2023-10-08T09:00:05;0.50;;;0.50;;
9767;SDS011;4923;52.520;13.494;2023-10-08T09:02:57;0.50;;;0.40;;
9767;SDS011;4923;52.520;13.494;2023-10-08T09:05:44;0.70;;;0.40;;
9767;SDS011;4923;52.520;13.494;2023-10-08T09:08:36;0.37;;;0.37;;
9767;SDS011;4923;52.520;13.494;2023-10-08T09:11:27;6.53;;;0.40;;
9767;SDS011;4923;52.520;13.494;2023-10-08T09:14:14;0.40;;;0.40;;
9767;SDS011;4923;52.520;13.494;2023-10-08T09:17:01;0.40;;;0.40;;
9767;SDS011;4923;52.520;13.494;2023-10-08T09:19:51;0.87;;;0.60;;
9767;SDS011;4923;52.520;13.494;2023-10-08T09:22:40;0.40;;;0.40;;
9767;SDS011;4923;52.520;13.494;2023-10-08T09:25:27;1.90;;;0.57;;
9767;SDS011;4923;52.520;13.494;2023-10-08T09:28:18;0.40;;;0.40;;
9767;SDS011;4923;52.520;13.494;2023-10-08T09:31:09;0.40;;;0.40;;
9767;SDS011;4923;52.520;13.494;2023-10-08T09:33:57;0.50;;;0.50;;
9767;SDS011;4923;52.520;13.494;2023-10-08T09:36:46;0.63;;;0.40;;
9767;SDS011;4923;52.520;13.494;2023-10-08T09:39:33;0.70;;;0.43;;
9767;SDS011;4923;52.520;13.494;2023-10-08T09:42:20;0.90;;;0.50;;
9767;SDS011;4923;52.520;13.494;2023-10-08T09:45:09;0.50;;;0.50;;
9767;SDS011;4923;52.520;13.494;2023-10-08T09:47:57;0.43;;;0.43;;
9767;SDS011;4923;52.520;13.494;2023-10-08T09:50:47;0.57;;;0.57;;
9767;SDS011;4923;52.520;13.494;2023-10-08T09:53:40;2.10;;;0.70;;
9767;SDS011;4923;52.520;13.494;2023-10-08T09:56:34;1.20;;;1.17;;
9767;SDS011;4923;52.520;13.494;2023-10-08T09:59:20;3.63;;;2.30;;
9767;SDS011;4923;52.520;13.494;2023-10-08T10:02:08;0.60;;;0.60;;
9767;SDS011;4923;52.520;13.494;2023-10-08T10:04:56;0.70;;;0.70;;
9767;SDS011;4923;52.520;13.494;2023-10-08T10:07:43;0.73;;;0.40;;
9767;SDS011;4923;52.520;13.494;2023-10-08T10:10:32;0.43;;;0.43;;
9767;SDS011;4923;52.520;13.494;2023-10-08T10:13:20;0.37;;;0.37;;
9767;SDS011;4923;52.520;13.494;2023-10-08T10:16:17;0.97;;;0.57;;
9767;SDS011;4923;52.520;13.494;2023-10-08T10:19:07;0.40;;;0.40;;
9767;SDS011;4923;52.520;13.494;2023-10-08T10:22:03;2.37;;;0.50;;
9767;SDS011;4923;52.520;13.494;2023-10-08T10:24:51;0.60;;;0.47;;
9767;SDS011;4923;52.520;13.494;2023-10-08T10:27:39;0.30;;;0.30;;
9767;SDS011;4923;52.520;13.494;2023-10-08T10:30:27;0.67;;;0.40;;
9767;SDS011;4923;52.520;13.494;2023-10-08T10:33:14;1.70;;;0.40;;
9767;SDS011;4923;52.520;13.494;2023-10-08T10:36:01;1.33;;;0.40;;
9767;SDS011;4923;52.520;13.494;2023-10-08T10:38:50;1.90;;;0.60;;
9767;SDS011;4923;52.520;13.494;2023-10-08T10:41:39;0.30;;;0.30;;
9767;SDS011;4923;52.520;13.494;2023-10-08T10:44:29;0.63;;;0.50;;
9767;SDS011;4923;52.520;13.494;2023-10-08T10:47:16;0.50;;;0.40;;
9767;SDS011;4923;52.520;13.494;2023-10-08T10:50:13;0.50;;;0.50;;
9767;SDS011;4923;52.520;13.494;2023-10-08T10:53:12;0.40;;;0.40;;
9767;SDS011;4923;52.520;13.494;2023-10-08T10:55:58;0.40;;;0.40;;
9767;SDS011;4923;52.520;13.494;2023-10-08T10:58:49;0.40;;;0.40;;
9767;SDS011;4923;52.520;13.494;2023-10-08T11:01:40;0.40;;;0.40;;
9767;SDS011;4923;52.520;13.494;2023-10-08T11:04:32;0.50;;;0.50;;
9767;SDS011;4923;52.520;13.494;2023-10-08T11:07:30;0.60;;;0.60;;
9767;SDS011;4923;52.520;13.494;2023-10-08T11:10:18;0.53;;;0.43;;
9767;SDS011;4923;52.520;13.494;2023-10-08T11:13:09;0.40;;;0.40;;
9767;SDS011;4923;52.520;13.494;2023-10-08T11:16:00;0.30;;;0.30;;
9767;SDS011;4923;52.520;13.494;2023-10-08T11:18:52;0.77;;;0.40;;
9767;SDS011;4923;52.520;13.494;2023-10-08T11:21:49;2.10;;;0.30;;
9767;SDS011;4923;52.520;13.494;2023-10-08T11:24:36;0.87;;;0.40;;
9767;SDS011;4923;52.520;13.494;2023-10-08T11:27:28;0.43;;;0.40;;
9767;SDS011;4923;52.520;13.494;2023-10-08T11:30:15;0.43;;;0.40;;
9767;SDS011;4923;52.520;13.494;2023-10-08T11:33:03;0.40;;;0.40;;
9767;SDS011;4923;52.520;13.494;2023-10-08T11:35:56;0.40;;;0.40;;
9767;SDS011;4923;52.520;13.494;2023-10-08T11:38:45;2.97;;;0.40;;
9767;SDS011;4923;52.520;13.494;2023-10-08T11:41:38;0.40;;;0.40;;
9767;SDS011;4923;52.520;13.494;2023-10-08T11:44:35;2.77;;;0.70;;
9767;SDS011;4923;52.520;13.494;2023-10-08T11:47:22;0.40;;;0.40;;
9767;SDS011;4923;52.520;13.494;2023-10-08T11:50:10;0.43;;;0.43;;
9767;SDS011;4923;52.520;13.494;2023-10-08T11:53:04;0.57;;;0.30;;
9767;SDS011;4923;52.520;13.494;2023-10-08T11:55:51;0.57;;;0.57;;
9767;SDS011;4923;52.520;13.494;2023-10-08T11:58:41;0.50;;;0.50;;
9767;SDS011;4923;52.520;13.494;2023-10-08T12:01:29;1.17;;;0.60;;
9767;SDS011;4923;52.520;13.494;2023-10-08T12:04:20;5.50;;;1.17;;
9767;SDS011;4923;52.520;13.494;2023-10-08T12:07:08;0.47;;;0.47;;
9767;SDS011;4923;52.520;13.494;2023-10-08T12:09:56;2.30;;;0.50;;
9767;SDS011;4923;52.520;13.494;2023-10-08T12:12:43;0.77;;;0.53;;
9767;SDS011;4923;52.520;13.494;2023-10-08T12:15:31;0.53;;;0.40;;
9767;SDS011;4923;52.520;13.494;2023-10-08T12:18:23;0.83;;;0.37;;
9767;SDS011;4923;52.520;13.494;2023-10-08T12:21:10;0.40;;;0.40;;
9767;SDS011;4923;52.520;13.494;2023-10-08T12:24:00;0.37;;;0.37;;
9767;SDS011;4923;52.520;13.494;2023-10-08T12:26:51;0.70;;;0.50;;
9767;SDS011;4923;52.520;13.494;2023-10-08T12:29:39;0.50;;;0.50;;
9767;SDS011;4923;52.520;13.494;2023-10-08T12:32:28;0.37;;;0.37;;
9767;SDS011;4923;52.520;13.494;2023-10-08T12:35:16;1.30;;;1.00;;
9767;SDS011;4923;52.520;13.494;2023-10-08T12:38:05;2.00;;;0.40;;
9767;SDS011;4923;52.520;13.494;2023-10-08T12:40:54;1.90;;;0.40;;
9767;SDS011;4923;52.520;13.494;2023-10-08T12:43:42;0.83;;;0.50;;
9767;SDS011;4923;52.520;13.494;2023-10-08T12:46:31;0.30;;;0.30;;
9767;SDS011;4923;52.520;13.494;2023-10-08T12:49:19;0.97;;;0.43;;
9767;SDS011;4923;52.520;13.494;2023-10-08T12:52:07;1.37;;;0.40;;
9767;SDS011;4923;52.520;13.494;2023-10-08T12:54:54;2.63;;;0.30;;
9767;SDS011;4923;52.520;13.494;2023-10-08T12:57:43;0.40;;;0.40;;
9767;SDS011;4923;52.520;13.494;2023-10-08T13:00:36;0.40;;;0.40;;
9767;SDS011;4923;52.520;13.494;2023-10-08T13:03:24;0.50;;;0.50;;
9767;SDS011;4923;52.520;13.494;2023-10-08T13:06:16;0.40;;;0.40;;
9767;SDS011;4923;52.520;13.494;2023-10-08T13:09:08;0.50;;;0.50;;
9767;SDS011;4923;52.520;13.494;2023-10-08T13:11:57;2.20;;;0.40;;
9767;SDS011;4923;52.520;13.494;2023-10-08T13:14:45;0.73;;;0.50;;
9767;SDS011;4923;52.520;13.494;2023-10-08T13:17:33;0.50;;;0.50;;
9767;SDS011;4923;52.520;13.494;2023-10-08T13:20:20;1.23;;;0.97;;
9767;SDS011;4923;52.520;13.494;2023-10-08T13:23:06;0.40;;;0.40;;
9767;SDS011;4923;52.520;13.494;2023-10-08T13:25:54;0.30;;;0.30;;
9767;SDS011;4923;52.520;13.494;2023-10-08T13:28:44;0.40;;;0.40;;
9767;SDS011;4923;52.520;13.494;2023-10-08T13:31:31;1.80;;;0.50;;
9767;SDS011;4923;52.520;13.494;2023-10-08T13:34:22;0.40;;;0.40;;
9767;SDS011;4923;52.520;13.494;2023-10-08T13:37:11;0.83;;;0.63;;
9767;SDS011;4923;52.520;13.494;2023-10-08T13:39:59;0.33;;;0.33;;
9767;SDS011;4923;52.520;13.494;2023-10-08T13:42:46;0.40;;;0.40;;
9767;SDS011;4923;52.520;13.494;2023-10-08T13:45:33;0.30;;;0.30;;
9767;SDS011;4923;52.520;13.494;2023-10-08T13:48:22;0.30;;;0.30;;
9767;SDS011;4923;52.520;13.494;2023-10-08T13:51:11;4.93;;;0.40;;
9767;SDS011;4923;52.520;13.494;2023-10-08T13:54:00;0.30;;;0.30;;
9767;SDS011;4923;52.520;13.494;2023-10-08T13:56:48;0.53;;;0.53;;
9767;SDS011;4923;52.520;13.494;2023-10-08T13:59:35;0.77;;;0.40;;
9767;SDS011;4923;52.520;13.494;2023-10-08T14:02:23;0.53;;;0.53;;
9767;SDS011;4923;52.520;13.494;2023-10-08T14:05:10;0.43;;;0.43;;
9767;SDS011;4923;52.520;13.494;2023-10-08T14:08:01;2.53;;;0.60;;
9767;SDS011;4923;52.520;13.494;2023-10-08T14:10:56;0.40;;;0.40;;
9767;SDS011;4923;52.520;13.494;2023-10-08T14:13:48;0.40;;;0.40;;
9767;SDS011;4923;52.520;13.494;2023-10-08T14:16:36;1.80;;;0.50;;
9767;SDS011;4923;52.520;13.494;2023-10-08T14:19:27;0.40;;;0.40;;
9767;SDS011;4923;52.520;13.494;2023-10-08T14:22:21;0.70;;;0.50;;
9767;SDS011;4923;52.520;13.494;2023-10-08T14:25:09;0.50;;;0.50;;
9767;SDS011;4923;52.520;13.494;2023-10-08T14:27:59;0.60;;;0.40;;
9767;SDS011;4923;52.520;13.494;2023-10-08T14:30:49;0.90;;;0.50;;
9767;SDS011;4923;52.520;13.494;2023-10-08T14:33:41;0.57;;;0.57;;
9767;SDS011;4923;52.520;13.494;2023-10-08T14:36:40;0.50;;;0.50;;
9767;SDS011;4923;52.520;13.494;2023-10-08T14:39:44;0.50;;;0.50;;
9767;SDS011;4923;52.520;13.494;2023-10-08T14:42:50;0.40;;;0.40;;
9767;SDS011;4923;52.520;13.494;2023-10-08T14:45:47;2.80;;;0.43;;
9767;SDS011;4923;52.520;13.494;2023-10-08T14:48:34;0.83;;;0.83;;
9767;SDS011;4923;52.520;13.494;2023-10-08T14:51:21;0.53;;;0.53;;
9767;SDS011;4923;52.520;13.494;2023-10-08T14:54:09;1.03;;;0.40;;
9767;SDS011;4923;52.520;13.494;2023-10-08T14:56:58;0.40;;;0.40;;
9767;SDS011;4923;52.520;13.494;2023-10-08T14:59:46;0.40;;;0.40;;
9767;SDS011;4923;52.520;13.494;2023-10-08T15:02:33;1.07;;;1.07;;
9767;SDS011;4923;52.520;13.494;2023-10-08T15:05:20;0.47;;;0.47;;
9767;SDS011;4923;52.520;13.494;2023-10-08T15:08:07;0.43;;;0.43;;
9767;SDS011;4923;52.520;13.494;2023-10-08T15:10:55;0.73;;;0.70;;
9767;SDS011;4923;52.520;13.494;2023-10-08T15:13:42;2.80;;;0.60;;
9767;SDS011;4923;52.520;13.494;2023-10-08T15:16:32;1.90;;;0.50;;
9767;SDS011;4923;52.520;13.494;2023-10-08T15:19:19;0.40;;;0.40;;
9767;SDS011;4923;52.520;13.494;2023-10-08T15:22:07;0.40;;;0.40;;
9767;SDS011;4923;52.520;13.494;2023-10-08T15:24:53;0.40;;;0.40;;
9767;SDS011;4923;52.520;13.494;2023-10-08T15:27:41;0.30;;;0.30;;
9767;SDS011;4923;52.520;13.494;2023-10-08T15:30:29;1.33;;;0.70;;
9767;SDS011;4923;52.520;13.494;2023-10-08T15:33:19;3.00;;;0.50;;
9767;SDS011;4923;52.520;13.494;2023-10-08T15:36:06;1.50;;;0.80;;
9767;SDS011;4923;52.520;13.494;2023-10-08T15:38:53;0.70;;;0.57;;
9767;SDS011;4923;52.520;13.494;2023-10-08T15:41:39;0.90;;;0.60;;
9767;SDS011;4923;52.520;13.494;2023-10-08T15:44:28;0.60;;;0.60;;
9767;SDS011;4923;52.520;13.494;2023-10-08T15:47:15;0.60;;;0.50;;
9767;SDS011;4923;52.520;13.494;2023-10-08T15:50:04;0.50;;;0.50;;
9767;SDS011;4923;52.520;13.494;2023-10-08T15:52:55;0.47;;;0.47;;
9767;SDS011;4923;52.520;13.494;2023-10-08T15:55:42;0.77;;;0.50;;
9767;SDS011;4923;52.520;13.494;2023-10-08T15:58:29;1.03;;;0.70;;
9767;SDS011;4923;52.520;13.494;2023-10-08T16:01:16;0.63;;;0.63;;
9767;SDS011;4923;52.520;13.494;2023-10-08T16:04:03;0.70;;;0.70;;
9767;SDS011;4923;52.520;13.494;2023-10-08T16:06:53;3.00;;;0.50;;
9767;SDS011;4923;52.520;13.494;2023-10-08T16:09:40;0.80;;;0.43;;
9767;SDS011;4923;52.520;13.494;2023-10-08T16:12:27;1.70;;;0.53;;
9767;SDS011;4923;52.520;13.494;2023-10-08T16:15:14;0.70;;;0.60;;
9767;SDS011;4923;52.520;13.494;2023-10-08T16:18:01;2.63;;;1.00;;
9767;SDS011;4923;52.520;13.494;2023-10-08T16:20:48;5.10;;;0.97;;
9767;SDS011;4923;52.520;13.494;2023-10-08T16:23:36;1.20;;;0.77;;
9767;SDS011;4923;52.520;13.494;2023-10-08T16:26:23;1.47;;;1.03;;
9767;SDS011;4923;52.520;13.494;2023-10-08T16:29:10;0.87;;;0.60;;
9767;SDS011;4923;52.520;13.494;2023-10-08T16:31:57;1.23;;;0.53;;
9767;SDS011;4923;52.520;13.494;2023-10-08T16:34:45;1.60;;;0.80;;
9767;SDS011;4923;52.520;13.494;2023-10-08T16:37:32;0.80;;;0.60;;
9767;SDS011;4923;52.520;13.494;2023-10-08T16:40:20;0.60;;;0.50;;
9767;SDS011;4923;52.520;13.494;2023-10-08T16:43:07;1.23;;;0.50;;
9767;SDS011;4923;52.520;13.494;2023-10-08T16:45:59;0.40;;;0.40;;
9767;SDS011;4923;52.520;13.494;2023-10-08T16:48:50;1.50;;;0.47;;
9767;SDS011;4923;52.520;13.494;2023-10-08T16:51:38;0.60;;;0.50;;
9767;SDS011;4923;52.520;13.494;2023-10-08T16:54:25;0.60;;;0.60;;
9767;SDS011;4923;52.520;13.494;2023-10-08T16:57:13;0.87;;;0.60;;
9767;SDS011;4923;52.520;13.494;2023-10-08T17:00:00;1.23;;;0.57;;
9767;SDS011;4923;52.520;13.494;2023-10-08T17:02:56;0.53;;;0.53;;
9767;SDS011;4923;52.520;13.494;2023-10-08T17:05:44;0.50;;;0.50;;
9767;SDS011;4923;52.520;13.494;2023-10-08T17:08:31;0.60;;;0.60;;
9767;SDS011;4923;52.520;13.494;2023-10-08T17:11:18;1.10;;;0.50;;
9767;SDS011;4923;52.520;13.494;2023-10-08T17:14:07;0.60;;;0.60;;
9767;SDS011;4923;52.520;13.494;2023-10-08T17:16:55;0.67;;;0.67;;
9767;SDS011;4923;52.520;13.494;2023-10-08T17:19:45;1.90;;;0.80;;
9767;SDS011;4923;52.520;13.494;2023-10-08T17:22:34;1.07;;;0.93;;